Greyhound Lines for Cbj Daisy

Cbj Daisy (Littermates)
Dk BdF7/25/2015IRUSKA ALL STAR - CBJ CHOC O LAT
Owned by carmen j inc and runs for the Clear Lakes Racing llc

Print Chart

Track Race Date Dist.   Track
Cond
Wt. Post Off Call1 Bye1 Call2 Bye2 Fin. Fin.
Bye
  Fav. Odds Grd Comments
OP 10/20/2017E-07 660 38.49 F 63.5 8 7 7 7 7 13.5 39.44 3.00 C No Gain Inside
OP 10/16/2017E-11 660 38.54 F 63.5 5 1 1 6 1 6 1 5 38.54 3.10 D Ahead Of Trouble Ins
OP 10/13/2017E-14 660 38.55 F 64 5 3 4 5 4 8.5 39.15 5.10 D In The Mix Rail
OP 10/9/2017E-14 660 38.37 F 63.5 2 2 2 2 4 8.5 38.98 3.50 D Gave Chase Inside
OP 10/5/2017S-08 550 31.63 F 63.5 1 1 1 2 1 2 1 4.5 31.63 ----- Scl Had More Late Inside
OP 9/25/2017S-13 550 32.09 F 63 4 6 6 6 6 11 32.85 ----- Scl Trouble Twice
OP 9/16/2017E-14 660 38.11 F 64 7 5 3 8 8 13.5 39.06 12.00 D Bumped Escape Turn
OP 9/13/2017E-14 660 38.70 F 64 8 7 3 6 8 11.5 39.50 4.10 D Contact Esc Turn Rl
OP 9/6/2017E-10 660 38.33 F 64.5 4 4 3 3 6 1 38.39 6.00 D Always Close Mdtrk
OP 9/2/2017E-02 660 38.71 F 63 6 2 1 ns 5 7 9.5 39.37 * 3.70 D Shutoff, Bumped Esc
OP 8/30/2017E-14 660 38.18 F 63 6 4 2 2 2 3 38.38 2.80 D Chased Winner Inside
OP 8/25/2017E-05 660 38.40 F 63 7 5 3 7 7 14.5 39.42 10.50 C Bmpd Esc Tn Midtrack
OP 8/21/2017E-05 660 38.48 F 63 2 2 2 5 5 7 38.97 4.00 C Threatened Early Mid
OP 8/16/2017E-05 660 37.80 F 63 4 6 5 4 4 9 38.44 4.00 C Improved Inside
OP 8/11/2017E-09 660 38.18 F 62.5 3 7 8 8 8 OOP 6.10 B Bumped Early, Fell
OP 8/7/2017E-09 660 38.13 F 62.5 7 4 2 2 3 3.5 38.37 6.00 B Led Between Calls Rl
OP 8/4/2017E-09 660 38.00 F 62.5 1 4 2 2 4 6.5 38.47 9.50 B Always In It Inside
OP 7/31/2017E-15 660 37.93 F 62 3 2 1 3 4 9 38.57 6.00 B Speed Till Far Tn Mt
OP 7/26/2017E-11 660 38.03 F 63 2 7 7 8 8 10.5 38.78 12.00 A Nowhere To Go Early
OP 7/20/2017E-11 550 30.56 F 63 4 8 8 7 7 13.5 31.49 9.00 A Bad Break
OP 7/15/2017E-11 550 30.38 F 63 2 7 8 8 7 16.5 31.55 13.30 A Blckd Twc, Wide 1st
OP 7/10/2017E-11 660 38.23 F 62.5 7 1 1 6 1 5 1 2.5 38.23 16.70 B Eased On Home Inside
OP 7/3/2017E-05 660 38.09 F 62 2 2 2 1 1.5 1 .5 38.09 7.80 C Held On To Win Mdtrk
OP 6/30/2017E-04 660 38.62 F 62 6 7 8 7 8 16 39.75 11.20 C Bmpd Wd Erly Mdtrk
OP 6/26/2017E-04 660 38.19 F 62.5 2 4 1 2 2 4.5 38.51 7.00 C Early Rush Inside
OP 6/23/2017E-13 660 37.79 F 62.5 1 4 5 5 5 7.5 38.32 4.20 C Bumped Erly Midtrack
OP 6/17/2017E-05 660 38.71 S 62.5 7 6 5 6 8 9.5 39.36 8.40 C Crwdd Wd Erly Mdtrk
OP 6/12/2017E-14 660 37.98 F 62.5 6 1 1 2 1 2 1 1 37.98 * 2.80 D Held On To Win Insd
OP 6/9/2017E-03 550 31.04 F 62 5 7 6 6 8 9.5 31.69 7.30 D Bmpd & Shffld 1st In
OP 6/5/2017E-11 660 37.90 F 62 8 3 2 2 2 3 38.10 7.10 D Chased Winner Inside
OP 6/1/2017S-12 550 31.22 F 62 3 4 4 5 3 7.5 31.74 ----- Scl Nudged Back 1st Mid
<< Race Replays 10/17 >>
S
M
T
W
T
F
S
1 2 3 4 5 6 7
8 9 10 11 12 13 14
15 16 17 18 19 20 21
22 23 24 25 26 27 28
29 30 31